createdAt,value
2018-06-08T00:00:49.775Z,19.59
2018-06-08T00:01:50.066Z,19.44
2018-06-08T00:02:49.765Z,19.38
2018-06-08T00:03:49.737Z,19.35
2018-06-08T00:04:49.782Z,19.32
2018-06-08T00:05:49.769Z,19.32
2018-06-08T00:06:49.764Z,19.24
2018-06-08T00:07:49.701Z,19.19
2018-06-08T00:08:49.988Z,19.23
2018-06-08T00:09:49.681Z,19.23
2018-06-08T00:10:49.663Z,19.12
2018-06-08T00:11:49.704Z,19.13
2018-06-08T00:12:49.696Z,19.13
2018-06-08T00:13:49.635Z,19.09
2018-06-08T00:14:49.621Z,19.13
2018-06-08T00:15:49.914Z,19.01
2018-06-08T00:16:49.598Z,19.00
2018-06-08T00:18:49.625Z,19.05
2018-06-08T00:20:49.603Z,19.04
2018-06-08T00:21:49.536Z,18.96
2018-06-08T00:22:49.825Z,19.04
2018-06-08T00:23:49.513Z,19.08
2018-06-08T00:24:49.504Z,19.07
2018-06-08T00:25:49.548Z,19.09
2018-06-08T00:26:49.530Z,19.15
2018-06-08T00:27:49.469Z,19.12
2018-06-08T00:28:49.465Z,19.19
2018-06-08T00:30:49.739Z,19.13
2018-06-08T00:31:49.581Z,19.16
2018-06-08T00:32:49.412Z,19.07
2018-06-08T00:33:49.413Z,19.05
2018-06-08T00:34:49.396Z,19.00
2018-06-08T00:35:49.378Z,18.97
2018-06-08T00:36:49.366Z,18.97
2018-06-08T00:37:49.715Z,19.01
2018-06-08T00:38:49.403Z,19.04
2018-06-08T00:40:49.333Z,18.98
2018-06-08T00:41:49.318Z,18.98
2018-06-08T00:42:49.301Z,18.96
2018-06-08T00:43:49.650Z,18.96
2018-06-08T00:44:49.332Z,19.00
2018-06-08T00:45:49.279Z,18.97
2018-06-08T00:46:49.261Z,19.00
2018-06-08T00:47:49.247Z,18.96
2018-06-08T00:48:49.269Z,19.01
2018-06-08T00:49:49.826Z,18.96
2018-06-08T00:50:49.217Z,18.91
2018-06-08T00:51:49.194Z,18.91
2018-06-08T00:52:49.185Z,18.85
2018-06-08T00:53:49.172Z,18.89
2018-06-08T00:54:49.164Z,18.81
2018-06-08T00:55:49.510Z,18.81
2018-06-08T00:56:49.196Z,18.75
2018-06-08T00:57:49.128Z,18.71
2018-06-08T00:58:49.127Z,18.68
2018-06-08T00:59:49.107Z,18.76
2018-06-08T01:00:49.094Z,18.68
2018-06-08T01:01:49.433Z,18.70
2018-06-08T01:02:49.124Z,18.74
2018-06-08T01:03:49.127Z,18.56
2018-06-08T01:04:49.054Z,18.57
2018-06-08T01:05:49.037Z,18.51
2018-06-08T01:06:49.030Z,18.60
2018-06-08T01:07:49.370Z,18.60
2018-06-08T01:08:49.057Z,18.57
2018-06-08T01:10:48.984Z,18.58
2018-06-08T01:11:48.970Z,18.51
2018-06-08T01:12:48.954Z,18.56
2018-06-08T01:13:49.299Z,18.58
2018-06-08T01:14:49.032Z,18.49
2018-06-08T01:15:48.928Z,18.56
2018-06-08T01:16:48.912Z,18.51
2018-06-08T01:17:48.898Z,18.54
2018-06-08T01:18:48.896Z,18.43
2018-06-08T01:19:49.234Z,18.43
2018-06-08T01:20:48.922Z,18.43
2018-06-08T01:21:48.905Z,18.49
2018-06-08T01:22:48.857Z,18.45
2018-06-08T01:23:48.834Z,18.46
2018-06-08T01:24:48.823Z,18.39
2018-06-08T01:25:48.811Z,18.38
2018-06-08T01:26:49.146Z,18.36
2018-06-08T01:27:48.841Z,18.36
2018-06-08T01:28:48.826Z,18.34
2018-06-08T01:30:48.745Z,18.26
2018-06-08T01:31:48.759Z,18.27
2018-06-08T01:32:48.780Z,18.30
2018-06-08T01:33:49.083Z,18.21
2018-06-08T01:34:48.748Z,18.26
2018-06-08T01:35:48.698Z,18.23
2018-06-08T01:36:48.685Z,18.18
2018-06-08T01:37:48.667Z,18.18
2018-06-08T01:38:48.658Z,18.24
2018-06-08T01:39:48.697Z,18.21
2018-06-08T01:40:48.985Z,18.21
2018-06-08T01:41:48.630Z,18.26
2018-06-08T01:42:48.607Z,18.24
2018-06-08T01:43:48.600Z,18.18
2018-06-08T01:44:48.582Z,18.28
2018-06-08T01:45:48.625Z,18.11
2018-06-08T01:47:48.905Z,18.21
2018-06-08T01:48:48.582Z,18.15
2018-06-08T01:49:48.525Z,18.18
2018-06-08T01:50:48.521Z,18.17
2018-06-08T01:51:48.557Z,18.13
2018-06-08T01:52:48.495Z,18.08
2018-06-08T01:53:48.524Z,18.09
2018-06-08T01:54:48.834Z,18.03
2018-06-08T01:55:48.453Z,18.05
2018-06-08T01:56:48.440Z,18.02
2018-06-08T01:58:48.420Z,17.91
2018-06-08T01:59:48.459Z,17.96
2018-06-08T02:00:48.494Z,17.93
2018-06-08T02:01:48.686Z,17.87
2018-06-08T02:02:48.379Z,17.88
2018-06-08T02:03:48.355Z,17.87
2018-06-08T02:04:48.361Z,17.87
2018-06-08T02:05:48.386Z,17.78
2018-06-08T02:06:48.377Z,17.69
2018-06-08T02:07:48.315Z,17.63
2018-06-08T02:08:48.609Z,17.65
2018-06-08T02:09:48.289Z,17.63
2018-06-08T02:10:48.277Z,17.68
2018-06-08T02:11:48.314Z,17.59
2018-06-08T02:12:48.314Z,17.68
2018-06-08T02:13:48.243Z,17.72
2018-06-08T02:14:48.532Z,17.68
2018-06-08T02:15:48.214Z,17.62
2018-06-08T02:17:48.647Z,17.52
2018-06-08T02:18:48.180Z,17.41
2018-06-08T02:19:48.161Z,17.49
2018-06-08T02:20:48.448Z,17.45
2018-06-08T02:21:48.134Z,17.39
2018-06-08T02:23:48.163Z,17.38
2018-06-08T02:24:48.147Z,17.39
2018-06-08T02:25:48.086Z,17.20
2018-06-08T02:26:48.324Z,17.16
2018-06-08T02:27:48.068Z,17.12
2018-06-08T02:28:48.052Z,17.09
2018-06-08T02:29:48.103Z,17.07
2018-06-08T02:30:48.081Z,17.13
2018-06-08T02:31:48.064Z,17.10
2018-06-08T02:32:48.309Z,17.12
2018-06-08T02:33:47.989Z,17.10
2018-06-08T02:34:47.984Z,17.10
2018-06-08T02:35:48.013Z,17.07
2018-06-08T02:36:48.011Z,16.98
2018-06-08T02:37:47.947Z,16.98
2018-06-08T02:38:48.226Z,16.98
2018-06-08T02:39:47.913Z,17.06
2018-06-08T02:40:47.904Z,16.95
2018-06-08T02:41:47.951Z,16.91
2018-06-08T02:43:47.919Z,16.83
2018-06-08T02:44:47.904Z,16.91
2018-06-08T02:45:48.155Z,16.87
2018-06-08T02:46:47.837Z,16.83
2018-06-08T02:47:47.870Z,16.80
2018-06-08T02:48:47.809Z,16.77
2018-06-08T02:49:47.894Z,16.80
2018-06-08T02:50:47.826Z,16.84
2018-06-08T02:51:48.122Z,16.80
2018-06-08T02:52:47.763Z,16.84
2018-06-08T02:53:47.743Z,16.82
2018-06-08T02:54:47.885Z,16.90
2018-06-08T02:55:47.765Z,16.84
2018-06-08T02:56:47.766Z,16.83
2018-06-08T02:57:47.688Z,16.79
2018-06-08T02:58:47.994Z,16.80
2018-06-08T02:59:47.674Z,16.80
2018-06-08T03:00:47.657Z,16.83
2018-06-08T03:01:47.693Z,16.94
2018-06-08T03:02:47.676Z,16.91
2018-06-08T03:03:47.716Z,16.91
2018-06-08T03:04:47.599Z,16.79
2018-06-08T03:05:47.907Z,16.84
2018-06-08T03:06:47.580Z,16.99
2018-06-08T03:07:47.610Z,16.94
2018-06-08T03:08:47.598Z,16.94
2018-06-08T03:09:47.542Z,16.94
2018-06-08T03:10:47.535Z,16.92
2018-06-08T03:11:47.510Z,16.98
2018-06-08T03:12:47.915Z,16.97
2018-06-08T03:13:47.537Z,16.88
2018-06-08T03:14:47.533Z,16.87
2018-06-08T03:15:47.512Z,16.92
2018-06-08T03:16:47.453Z,16.95
2018-06-08T03:17:47.442Z,16.91
2018-06-08T03:18:47.436Z,16.97
2018-06-08T03:19:47.715Z,16.84
2018-06-08T03:20:47.551Z,16.92
2018-06-08T03:21:47.384Z,16.91
2018-06-08T03:22:47.377Z,16.90
2018-06-08T03:23:47.357Z,16.95
2018-06-08T03:24:47.354Z,16.97
2018-06-08T03:25:47.338Z,16.83
2018-06-08T03:26:47.679Z,16.83
2018-06-08T03:27:47.375Z,16.83
2018-06-08T03:28:47.344Z,16.82
2018-06-08T03:29:47.293Z,16.70
2018-06-08T03:30:47.273Z,16.72
2018-06-08T03:31:47.265Z,16.73
2018-06-08T03:32:47.300Z,16.57
2018-06-08T03:33:47.578Z,16.59
2018-06-08T03:34:47.274Z,16.64
2018-06-08T03:35:47.205Z,16.70
2018-06-08T03:36:47.192Z,16.65
2018-06-08T03:37:47.190Z,16.59
2018-06-08T03:38:47.217Z,16.61
2018-06-08T03:39:47.205Z,16.67
2018-06-08T03:40:47.450Z,16.59
2018-06-08T03:42:47.117Z,16.62
2018-06-08T03:43:47.114Z,16.64
2018-06-08T03:44:47.137Z,16.67
2018-06-08T03:45:47.135Z,16.73
2018-06-08T03:46:47.375Z,16.79
2018-06-08T03:47:47.069Z,16.77
2018-06-08T03:48:47.043Z,16.92
2018-06-08T03:49:47.031Z,16.92
2018-06-08T03:50:47.071Z,16.95
2018-06-08T03:51:47.055Z,16.87
2018-06-08T03:52:47.287Z,16.83
2018-06-08T03:53:46.998Z,16.80
2018-06-08T03:54:46.972Z,16.67
2018-06-08T03:55:46.956Z,16.76
2018-06-08T03:56:47.102Z,16.70
2018-06-08T03:57:46.929Z,16.73
2018-06-08T03:58:47.215Z,16.69
2018-06-08T03:59:46.907Z,16.69
2018-06-08T04:00:47.140Z,16.65
2018-06-08T04:01:46.875Z,16.74
2018-06-08T04:02:46.863Z,16.73
2018-06-08T04:03:46.848Z,16.73
2018-06-08T04:04:47.144Z,16.67
2018-06-08T04:05:46.826Z,16.70
2018-06-08T04:06:46.863Z,16.74
2018-06-08T04:07:46.847Z,16.67
2018-06-08T04:08:46.793Z,16.69
2018-06-08T04:10:47.063Z,16.76
2018-06-08T04:11:46.743Z,16.79
2018-06-08T04:12:46.786Z,16.82
2018-06-08T04:13:46.766Z,16.82
2018-06-08T04:14:46.711Z,16.83
2018-06-08T04:15:46.692Z,16.94
2018-06-08T04:16:46.985Z,16.88
2018-06-08T04:17:46.676Z,16.95
2018-06-08T04:18:46.701Z,16.98
2018-06-08T04:19:46.711Z,17.02
2018-06-08T04:20:46.697Z,17.09
2018-06-08T04:21:46.618Z,17.06
2018-06-08T04:22:46.904Z,17.10
2018-06-08T04:23:46.588Z,17.16
2018-06-08T04:24:46.576Z,17.20
2018-06-08T04:26:46.807Z,17.30
2018-06-08T04:27:46.543Z,17.27
2018-06-08T04:28:46.603Z,17.34
2018-06-08T04:29:47.421Z,17.34
2018-06-08T04:30:47.079Z,17.39
2018-06-08T04:31:59.651Z,17.39
2018-06-08T04:34:46.567Z,17.39
2018-06-08T04:35:46.448Z,17.43
2018-06-08T04:36:46.817Z,17.43
2018-06-08T04:37:46.465Z,17.50
2018-06-08T04:38:46.518Z,17.56
2018-06-08T04:39:46.433Z,17.65
2018-06-08T04:40:46.372Z,17.65
2018-06-08T04:41:46.367Z,17.73
2018-06-08T04:42:46.347Z,17.73
2018-06-08T04:43:46.648Z,17.75
2018-06-08T04:44:46.370Z,17.90
2018-06-08T04:45:46.451Z,17.91
2018-06-08T04:46:46.297Z,17.93
2018-06-08T04:47:46.315Z,17.99
2018-06-08T04:48:46.283Z,18.01
2018-06-08T04:49:46.269Z,17.97
2018-06-08T04:50:46.599Z,18.01
2018-06-08T04:51:46.357Z,18.11
2018-06-08T04:52:46.277Z,18.15
2018-06-08T04:53:46.242Z,18.17
2018-06-08T04:54:46.204Z,18.12
2018-06-08T04:55:46.552Z,18.24
2018-06-08T04:56:46.226Z,18.36
2018-06-08T04:57:46.220Z,18.38
2018-06-08T04:59:46.139Z,18.39
2018-06-08T05:00:46.133Z,18.42
2018-06-08T05:01:46.161Z,18.45
2018-06-08T05:02:46.154Z,18.54
2018-06-08T05:03:46.490Z,18.54
2018-06-08T05:04:46.141Z,18.60
2018-06-08T05:05:46.067Z,18.61
2018-06-08T05:06:46.054Z,18.64
2018-06-08T05:07:46.043Z,18.71
2018-06-08T05:08:46.038Z,18.68
2018-06-08T05:10:46.368Z,18.88
2018-06-08T05:11:46.049Z,18.86
2018-06-08T05:12:46.040Z,18.88
2018-06-08T05:13:46.062Z,18.91
2018-06-08T05:14:45.980Z,18.86
2018-06-08T05:15:45.956Z,18.93
2018-06-08T05:16:45.988Z,18.97
2018-06-08T05:17:46.280Z,18.91
2018-06-08T05:18:59.598Z,19.13
2018-06-08T05:19:46.016Z,19.07
2018-06-08T05:21:46.018Z,19.22
2018-06-08T05:23:46.291Z,19.32
2018-06-08T05:24:45.898Z,19.34
2018-06-08T05:26:45.830Z,19.41
2018-06-08T05:27:45.818Z,19.38
2018-06-08T05:29:46.141Z,19.59
2018-06-08T05:30:45.833Z,19.59
2018-06-08T05:31:45.867Z,19.68
2018-06-08T05:32:45.756Z,19.74
2018-06-08T05:33:45.751Z,19.77
2018-06-08T05:34:45.744Z,19.74
2018-06-08T05:35:45.787Z,19.84
2018-06-08T05:36:45.772Z,19.86
2018-06-08T05:37:46.233Z,19.89
2018-06-08T05:38:45.927Z,19.93
2018-06-08T05:39:45.917Z,20.07
2018-06-08T05:40:45.767Z,19.97
2018-06-08T05:41:46.533Z,20.04
2018-06-08T05:42:45.802Z,20.08
2018-06-08T05:43:45.644Z,20.15
2018-06-08T05:44:45.622Z,20.17
2018-06-08T05:45:45.617Z,20.09
2018-06-08T05:46:45.602Z,20.26
2018-06-08T05:47:45.910Z,20.34
2018-06-08T05:48:45.687Z,20.41
2018-06-08T05:49:45.729Z,20.39
2018-06-08T05:50:45.567Z,20.50
2018-06-08T05:51:45.559Z,20.52
2018-06-08T05:52:45.547Z,20.61
2018-06-08T05:53:45.890Z,20.64
2018-06-08T05:54:45.577Z,20.68
2018-06-08T05:55:45.663Z,20.70
2018-06-08T05:56:45.496Z,20.70
2018-06-08T05:57:45.495Z,20.74
2018-06-08T05:58:45.485Z,20.75
2018-06-08T05:59:45.777Z,20.73
2018-06-08T06:00:45.519Z,20.86
2018-06-08T06:01:45.495Z,20.83
2018-06-08T06:02:45.437Z,20.89
2018-06-08T06:03:45.442Z,20.92
2018-06-08T06:04:45.421Z,20.86
2018-06-08T06:05:45.417Z,20.98
2018-06-08T06:06:45.749Z,21.08
2018-06-08T06:07:45.453Z,21.13
2018-06-08T06:08:45.435Z,21.20
2018-06-08T06:09:45.367Z,21.22
2018-06-08T06:10:45.356Z,21.20
2018-06-08T06:11:45.356Z,21.32
2018-06-08T06:12:45.332Z,21.35
2018-06-08T06:13:45.379Z,21.44
2018-06-08T06:14:45.565Z,21.41
2018-06-08T06:15:45.302Z,21.51
2018-06-08T06:16:45.398Z,21.55
2018-06-08T06:17:45.291Z,21.56
2018-06-08T06:18:45.575Z,21.51
2018-06-08T06:19:45.274Z,21.56
2018-06-08T06:20:45.486Z,21.63
2018-06-08T06:21:45.398Z,21.69
2018-06-08T06:22:45.242Z,21.77
2018-06-08T06:23:45.226Z,21.80
2018-06-08T06:24:45.219Z,21.82
2018-06-08T06:25:45.207Z,21.82
2018-06-08T06:26:45.277Z,21.84
2018-06-08T06:27:45.250Z,21.82
2018-06-08T06:28:45.231Z,21.88
2018-06-08T06:29:45.174Z,21.84
2018-06-08T06:30:45.462Z,21.93
2018-06-08T06:31:45.146Z,21.88
2018-06-08T06:32:45.447Z,22.04
2018-06-08T06:33:45.176Z,22.09
2018-06-08T06:34:45.168Z,22.15
2018-06-08T06:35:46.525Z,22.22
2018-06-08T06:36:45.699Z,22.16
2018-06-08T06:37:45.091Z,22.25
2018-06-08T06:38:45.141Z,22.28
2018-06-08T06:39:45.127Z,22.27
2018-06-08T06:40:45.122Z,22.30
2018-06-08T06:41:45.255Z,22.33
2018-06-08T06:42:45.346Z,22.33
2018-06-08T06:43:45.037Z,22.31
2018-06-08T06:44:45.084Z,22.33
2018-06-08T06:45:45.074Z,22.44
2018-06-08T06:46:45.007Z,22.44
2018-06-08T06:47:44.993Z,22.51
2018-06-08T06:48:45.293Z,22.51
2018-06-08T06:49:44.980Z,22.55
2018-06-08T06:50:45.024Z,22.52
2018-06-08T06:51:45.008Z,22.56
2018-06-08T06:52:45.014Z,22.56
2018-06-08T06:53:44.938Z,22.66
2018-06-08T06:54:44.938Z,22.68
2018-06-08T06:55:45.226Z,22.71
2018-06-08T06:56:44.977Z,22.83
2018-06-08T06:57:44.958Z,22.91
2018-06-08T06:58:44.955Z,22.91
2018-06-08T06:59:44.888Z,22.99
2018-06-08T07:00:44.879Z,22.99
2018-06-08T07:01:45.171Z,23.01
2018-06-08T07:02:44.866Z,23.13
2018-06-08T07:03:44.904Z,23.22
2018-06-08T07:04:44.894Z,23.29
2018-06-08T07:05:44.837Z,23.42
2018-06-08T07:06:44.826Z,23.48
2018-06-08T07:07:45.125Z,23.52
2018-06-08T07:08:44.811Z,23.60
2018-06-08T07:09:44.901Z,23.78
2018-06-08T07:10:44.842Z,23.78
2018-06-08T07:11:44.876Z,23.71
2018-06-08T07:12:44.796Z,23.88
2018-06-08T07:13:45.059Z,23.88
2018-06-08T07:14:44.757Z,23.89
2018-06-08T07:15:44.764Z,24.00
2018-06-08T07:16:44.782Z,24.00
2018-06-08T07:17:55.049Z,24.13
2018-06-08T07:18:44.796Z,24.19
2018-06-08T07:20:45.024Z,24.43
2018-06-08T07:21:44.695Z,24.45
2018-06-08T07:22:44.680Z,24.51
2018-06-08T07:23:44.729Z,24.59
2018-06-08T07:24:44.756Z,24.70
2018-06-08T07:25:44.662Z,24.76
2018-06-08T07:26:45.667Z,24.84
2018-06-08T07:27:44.661Z,25.15
2018-06-08T07:28:44.638Z,25.40
2018-06-08T07:29:45.332Z,25.68
2018-06-08T07:30:44.629Z,25.75
2018-06-08T07:31:44.736Z,25.77
2018-06-08T07:32:44.901Z,25.88
2018-06-08T07:33:44.610Z,25.74
2018-06-08T07:34:44.605Z,26.11
2018-06-08T07:35:44.657Z,25.95
2018-06-08T07:36:44.632Z,26.36
2018-06-08T07:37:44.572Z,26.65
2018-06-08T07:38:44.563Z,27.07
2018-06-08T07:39:44.550Z,27.44
2018-06-08T07:40:44.548Z,27.23
2018-06-08T07:41:44.646Z,27.12
2018-06-08T07:42:44.684Z,27.16
2018-06-08T07:43:44.624Z,27.25
2018-06-08T07:44:44.530Z,27.76
2018-06-08T07:45:44.520Z,28.22
2018-06-08T07:46:44.528Z,28.49
2018-06-08T07:47:44.523Z,28.75
2018-06-08T07:48:44.548Z,28.86
2018-06-08T07:49:44.550Z,28.87
2018-06-08T07:50:44.788Z,28.98
2018-06-08T07:51:44.476Z,29.07
2018-06-08T07:52:44.477Z,29.15
2018-06-08T07:53:44.483Z,29.12
2018-06-08T07:54:44.517Z,29.29
2018-06-08T07:55:44.563Z,29.44
2018-06-08T07:56:44.862Z,29.73
2018-06-08T07:57:44.462Z,29.98
2018-06-08T07:58:44.441Z,29.93
2018-06-08T07:59:44.437Z,30.07
2018-06-08T08:00:44.488Z,30.14
2018-06-08T08:01:44.482Z,30.15
2018-06-08T08:02:44.742Z,30.00
2018-06-08T08:03:44.427Z,30.00
2018-06-08T08:04:44.423Z,29.96
2018-06-08T08:05:44.419Z,30.17
2018-06-08T08:06:44.472Z,30.21
2018-06-08T08:07:44.506Z,30.22
2018-06-08T08:08:44.757Z,30.39
2018-06-08T08:09:44.408Z,30.71
2018-06-08T08:10:44.397Z,30.77
2018-06-08T08:11:44.390Z,30.89
2018-06-08T08:12:44.416Z,30.70
2018-06-08T08:13:44.491Z,30.85
2018-06-08T08:14:44.734Z,31.05
2018-06-08T08:15:44.391Z,31.34
2018-06-08T08:16:44.387Z,31.24
2018-06-08T08:17:44.384Z,31.05
2018-06-08T08:18:44.373Z,30.77
2018-06-08T08:19:44.422Z,30.17
2018-06-08T08:20:45.531Z,29.65
2018-06-08T08:21:44.366Z,29.40
2018-06-08T08:22:44.369Z,29.52
2018-06-08T08:23:44.363Z,29.46
2018-06-08T08:24:44.356Z,29.81
2018-06-08T08:25:44.525Z,29.58
2018-06-08T08:26:44.661Z,29.36
2018-06-08T08:27:44.368Z,29.50
2018-06-08T08:28:44.348Z,30.02
2018-06-08T08:29:44.521Z,30.00
2018-06-08T08:30:44.351Z,30.59
2018-06-08T08:31:44.369Z,30.65
2018-06-08T08:32:44.647Z,31.01
2018-06-08T08:33:45.752Z,31.51
2018-06-08T08:34:44.340Z,31.46
2018-06-08T08:35:44.486Z,31.64
2018-06-08T08:36:44.540Z,31.74
2018-06-08T08:37:47.374Z,31.84
2018-06-08T08:38:45.243Z,31.97
2018-06-08T08:39:57.062Z,31.98
2018-06-08T08:40:44.332Z,32.02
2018-06-08T08:41:44.376Z,32.02
2018-06-08T08:42:44.380Z,32.11
2018-06-08T08:43:44.322Z,32.24
2018-06-08T08:44:44.629Z,32.39
2018-06-08T08:45:44.408Z,32.61
2018-06-08T08:46:44.327Z,32.85
2018-06-08T08:47:44.976Z,32.69
2018-06-08T08:48:44.326Z,32.58
2018-06-08T08:49:44.926Z,32.55
2018-06-08T08:50:44.631Z,32.16
2018-06-08T08:51:45.884Z,32.11
2018-06-08T08:52:44.315Z,32.45
2018-06-08T08:53:45.865Z,32.54
2018-06-08T08:54:44.988Z,32.02
2018-06-08T08:55:45.624Z,32.11
2018-06-08T08:57:30.575Z,32.21
2018-06-08T08:57:44.919Z,32.31
2018-06-08T08:58:44.315Z,32.58
2018-06-08T09:00:17.879Z,32.27
2018-06-08T09:01:10.007Z,32.55
2018-06-08T09:01:44.328Z,32.35
2018-06-08T09:02:45.230Z,32.57
2018-06-08T09:03:45.753Z,32.95
2018-06-08T09:04:44.528Z,33.09
2018-06-08T09:05:44.376Z,33.17
2018-06-08T09:06:44.368Z,33.27
2018-06-08T09:07:44.426Z,33.26
2018-06-08T09:08:44.639Z,33.33
2018-06-08T09:09:44.326Z,33.57
2018-06-08T09:10:44.326Z,33.55
2018-06-08T09:11:44.326Z,33.69
2018-06-08T09:12:44.384Z,34.01
2018-06-08T09:13:44.424Z,33.92
2018-06-08T09:14:44.677Z,34.15
2018-06-08T09:15:44.321Z,34.13
2018-06-08T09:16:44.528Z,34.30
2018-06-08T09:17:44.334Z,34.50
2018-06-08T09:19:03.742Z,34.64
2018-06-08T09:19:47.622Z,34.34
2018-06-08T09:20:44.855Z,34.18
2018-06-08T09:21:47.558Z,34.15
2018-06-08T09:22:44.348Z,34.18
2018-06-08T09:23:44.378Z,34.00
2018-06-08T09:24:44.341Z,34.16
2018-06-08T09:25:44.390Z,34.30
2018-06-08T09:26:44.533Z,34.11
2018-06-08T09:27:44.591Z,34.22
2018-06-08T09:28:44.347Z,34.29
2018-06-08T09:29:44.342Z,34.52
2018-06-08T09:30:44.364Z,34.44
2018-06-08T09:31:44.403Z,34.16
2018-06-08T09:32:44.422Z,34.03
2018-06-08T09:33:44.658Z,33.84
2018-06-08T09:34:44.360Z,34.06
2018-06-08T09:35:44.370Z,34.16
2018-06-08T09:36:44.425Z,34.35
2018-06-08T09:38:44.430Z,34.83
2018-06-08T09:39:44.828Z,34.48
2018-06-08T09:40:50.633Z,34.48
2018-06-08T09:41:48.187Z,34.34
2018-06-08T09:42:44.439Z,34.32
2018-06-08T09:43:44.578Z,34.64
2018-06-08T09:44:44.585Z,34.80
2018-06-08T09:46:24.345Z,34.82
2018-06-08T09:46:44.380Z,34.97
2018-06-08T09:47:44.655Z,35.38
2018-06-08T09:48:44.439Z,35.36
2018-06-08T09:49:44.455Z,35.44
2018-06-08T09:50:44.601Z,35.56
2018-06-08T09:51:45.329Z,35.68
2018-06-08T09:52:45.823Z,35.68
2018-06-08T09:53:44.673Z,35.17
2018-06-08T09:54:44.552Z,34.94
2018-06-08T09:55:44.423Z,35.20
2018-06-08T09:56:44.411Z,35.26
2018-06-08T09:57:44.722Z,35.29
2018-06-08T09:58:45.672Z,35.48
2018-06-08T09:59:45.778Z,35.53
2018-06-08T10:00:44.440Z,35.73
2018-06-08T10:01:44.432Z,36.03
2018-06-08T10:02:44.455Z,36.15
2018-06-08T10:03:44.771Z,36.09
2018-06-08T10:04:44.708Z,35.88
2018-06-08T10:05:44.550Z,36.02
2018-06-08T10:06:44.509Z,35.76
2018-06-08T10:07:44.750Z,35.66
2018-06-08T10:08:44.528Z,35.85
2018-06-08T10:09:47.815Z,35.90
2018-06-08T10:10:45.901Z,36.13
2018-06-08T10:11:44.701Z,36.38
2018-06-08T10:12:45.947Z,36.60
2018-06-08T10:13:44.602Z,36.44
2018-06-08T10:14:50.819Z,35.76
2018-06-08T10:15:44.810Z,35.39
2018-06-08T10:16:44.517Z,35.48
2018-06-08T10:17:44.521Z,35.41
2018-06-08T10:18:44.513Z,35.69
2018-06-08T10:19:44.579Z,35.68
2018-06-08T10:20:44.589Z,35.70
2018-06-08T10:21:44.973Z,35.95
2018-06-08T10:22:44.568Z,36.07
2018-06-08T10:23:44.914Z,36.35
2018-06-08T10:24:48.612Z,36.52
2018-06-08T10:25:44.569Z,36.42
2018-06-08T10:26:44.817Z,36.56
2018-06-08T10:27:44.922Z,36.38
2018-06-08T10:28:44.631Z,36.11
2018-06-08T10:29:44.577Z,36.04
2018-06-08T10:30:44.595Z,36.26
2018-06-08T10:31:44.595Z,36.59
2018-06-08T10:32:44.600Z,36.52
2018-06-08T10:33:44.952Z,36.70
2018-06-08T10:34:44.653Z,36.94
2018-06-08T10:35:44.672Z,37.00
2018-06-08T10:36:44.621Z,37.37
2018-06-08T10:37:44.632Z,37.62
2018-06-08T10:39:44.689Z,37.95
2018-06-08T10:40:44.993Z,37.82
2018-06-08T10:41:44.706Z,37.08
2018-06-08T10:42:44.703Z,36.29
2018-06-08T10:43:44.656Z,35.51
2018-06-08T10:44:44.689Z,35.42
2018-06-08T10:45:44.736Z,35.90
2018-06-08T10:46:44.831Z,36.38
2018-06-08T10:47:47.940Z,36.82
2018-06-08T10:48:54.186Z,37.35
2018-06-08T10:49:56.035Z,37.58
2018-06-08T10:50:57.593Z,36.74
2018-06-08T10:51:45.136Z,36.63
2018-06-08T10:52:44.744Z,36.86
2018-06-08T10:53:44.734Z,37.01
2018-06-08T10:54:45.041Z,37.26
2018-06-08T10:55:48.015Z,37.38
2018-06-08T10:56:44.751Z,36.93
2018-06-08T10:57:45.703Z,35.91
2018-06-08T10:58:44.750Z,35.02
2018-06-08T10:59:44.749Z,34.42
2018-06-08T11:00:44.756Z,33.89
2018-06-08T11:01:51.123Z,33.41
2018-06-08T11:02:46.236Z,32.76
2018-06-08T11:03:45.273Z,32.51
2018-06-08T11:05:03.988Z,32.35
2018-06-08T11:05:46.190Z,32.06
2018-06-08T11:06:44.982Z,32.09
2018-06-08T11:07:45.158Z,31.87
2018-06-08T11:09:45.835Z,31.94
2018-06-08T11:10:44.799Z,32.01
2018-06-08T11:11:44.798Z,32.16
2018-06-08T11:12:47.841Z,32.27
2018-06-08T11:13:50.070Z,33.09
2018-06-08T11:14:44.902Z,34.28
2018-06-08T11:15:45.291Z,35.28
2018-06-08T11:16:45.017Z,35.94
2018-06-08T11:17:44.803Z,36.51
2018-06-08T11:18:46.474Z,36.30
2018-06-08T11:19:45.065Z,35.77
2018-06-08T11:20:44.817Z,35.12
2018-06-08T11:21:45.183Z,34.60
2018-06-08T11:22:44.921Z,34.11
2018-06-08T11:23:45.131Z,33.92
2018-06-08T11:24:45.531Z,33.55
2018-06-08T11:25:44.852Z,33.35
2018-06-08T11:26:44.835Z,33.01
2018-06-08T11:27:45.321Z,32.77
2018-06-08T11:28:45.493Z,32.58
2018-06-08T11:29:44.839Z,32.65
2018-06-08T11:30:44.891Z,33.89
2018-06-08T11:31:44.884Z,35.04
2018-06-08T11:32:44.855Z,35.24
2018-06-08T11:33:45.209Z,34.62
2018-06-08T11:34:45.098Z,34.03
2018-06-08T11:35:44.909Z,33.37
2018-06-08T11:36:44.842Z,32.97
2018-06-08T11:37:44.845Z,32.60
2018-06-08T11:38:44.852Z,32.50
2018-06-08T11:40:45.208Z,33.76
2018-06-08T11:41:45.709Z,33.71
2018-06-08T11:42:45.522Z,34.04
2018-06-08T11:43:44.867Z,33.76
2018-06-08T11:44:44.859Z,33.17
2018-06-08T11:45:44.920Z,32.85
2018-06-08T11:46:45.374Z,32.54
2018-06-08T11:47:46.340Z,32.38
2018-06-08T11:48:47.080Z,32.31
2018-06-08T11:49:44.970Z,32.19
2018-06-08T11:50:44.873Z,32.09
2018-06-08T11:51:44.877Z,32.08
2018-06-08T11:52:45.183Z,32.11
2018-06-08T11:53:46.389Z,32.05
2018-06-08T11:54:45.534Z,31.98
2018-06-08T11:55:44.878Z,32.13
2018-06-08T11:56:45.076Z,31.99
2018-06-08T11:57:44.896Z,32.05
2018-06-08T11:58:45.812Z,32.45
2018-06-08T11:59:45.491Z,33.45
2018-06-08T12:00:45.174Z,34.04
2018-06-08T12:01:44.891Z,34.92
2018-06-08T12:02:44.885Z,34.67
2018-06-08T12:03:49.259Z,34.16
2018-06-08T12:04:44.889Z,33.64
2018-06-08T12:05:45.008Z,33.27
2018-06-08T12:06:44.945Z,32.97
2018-06-08T12:07:44.938Z,32.82
2018-06-08T12:08:44.882Z,32.60
2018-06-08T12:09:45.796Z,32.51
2018-06-08T12:10:44.971Z,32.21
2018-06-08T12:11:44.939Z,32.08
2018-06-08T12:12:44.938Z,32.13
2018-06-08T12:13:44.947Z,32.11
2018-06-08T12:14:44.911Z,32.05
2018-06-08T12:15:45.198Z,31.87
2018-06-08T12:16:44.888Z,31.75
2018-06-08T12:17:44.886Z,31.75
2018-06-08T12:18:45.035Z,31.76
2018-06-08T12:19:44.988Z,31.66
2018-06-08T12:20:44.948Z,31.63
2018-06-08T12:21:45.411Z,31.61
2018-06-08T12:22:45.493Z,32.02
2018-06-08T12:23:44.886Z,31.95
2018-06-08T12:24:44.884Z,31.94
2018-06-08T12:25:44.983Z,31.94
2018-06-08T12:26:44.981Z,31.90
2018-06-08T12:27:45.241Z,31.84
2018-06-08T12:28:44.880Z,31.86
2018-06-08T12:29:45.126Z,32.27
2018-06-08T12:30:44.893Z,32.53
2018-06-08T12:31:44.880Z,32.50
2018-06-08T12:32:45.179Z,32.60
2018-06-08T12:33:44.924Z,33.04
2018-06-08T12:34:44.875Z,32.88
2018-06-08T12:35:45.158Z,33.41
2018-06-08T12:36:44.865Z,34.13
2018-06-08T12:37:45.779Z,33.79
2018-06-08T12:38:45.492Z,33.49
2018-06-08T12:39:45.231Z,32.91
2018-06-08T12:40:44.868Z,32.57
2018-06-08T12:41:44.884Z,32.43
2018-06-08T12:43:44.860Z,31.86
2018-06-08T12:44:45.219Z,31.71
2018-06-08T12:45:44.979Z,31.71
2018-06-08T12:46:44.966Z,31.76
2018-06-08T12:47:44.874Z,31.75
2018-06-08T12:48:44.873Z,31.78
2018-06-08T12:49:44.883Z,31.98
2018-06-08T12:50:45.268Z,32.53
2018-06-08T12:51:45.107Z,32.73
2018-06-08T12:52:49.121Z,33.47
2018-06-08T12:54:44.859Z,33.93
2018-06-08T12:55:45.718Z,34.07
2018-06-08T12:56:45.169Z,33.30
2018-06-08T12:57:44.873Z,32.85
2018-06-08T12:58:45.114Z,32.39
2018-06-08T12:59:44.963Z,32.17
2018-06-08T13:00:44.940Z,32.17
2018-06-08T13:01:47.889Z,32.21
2018-06-08T13:02:57.885Z,32.01
2018-06-08T13:03:44.954Z,31.76
2018-06-08T13:04:44.899Z,31.79
2018-06-08T13:05:44.897Z,32.31
2018-06-08T13:06:44.864Z,32.55
2018-06-08T13:07:45.115Z,33.01
2018-06-08T13:08:44.851Z,32.92
2018-06-08T13:10:44.898Z,32.50
2018-06-08T13:11:44.912Z,32.73
2018-06-08T13:12:44.893Z,32.51
2018-06-08T13:13:44.853Z,32.05
2018-06-08T13:14:44.839Z,31.81
2018-06-08T13:15:45.158Z,31.71
2018-06-08T13:16:44.895Z,31.60
2018-06-08T13:17:44.946Z,31.66
2018-06-08T13:18:44.895Z,31.49
2018-06-08T13:19:44.837Z,31.48
2018-06-08T13:20:44.841Z,31.48
2018-06-08T13:21:45.132Z,31.30
2018-06-08T13:22:44.937Z,31.27